Latest Coastal Weather Observations for Ngayawili (Elcho Island)

IDD60701

Issued at 11:01 am CST Wednesday 22 February 2017 (issued every 10 minutes, with the page automatically refreshed every 10 minutes)

About coastal observations | Map of coastal stations | Coastal observations for NT | Marine services | Other Formats
Station Details ID: 014517 Name: NGAYAWILI Lat: -12.00 Lon: 135.57 Height: 8.1 m
Data from the previous 72 hours. | See also: Recent months at Ngayawili (Elcho Island)
Date/Time
CST
Temp
°C
Wind Pressure Rain since
9am
mm
Weather Cloud Vis
km
Sea
Height
m
Swell
Dir  Spd
kts
Gust
kts
hPa Trend Height
m
Period
s
Dir
22/11:00am 31.0 WNW 13 15 1010.1 - 0.0 - - - - - - -
22/10:30am 30.8 WNW 13 16 1010.2 - 0.0 - - - - - - -
22/10:00am 30.4 WNW 13 15 1010.2 - 0.0 - - - - - - -
22/09:30am 30.2 WNW 13 14 1010.6 - 0.0 - - - - - - -
22/09:00am 29.8 NW 13 15 1010.8 - 1.4 - - - - - - -
22/08:30am 29.5 NW 14 16 1010.7 - 1.4 - - - - - - -
22/08:00am 28.9 NW 12 15 1010.6 - 1.4 - - - - - - -
22/07:30am 28.6 NW 14 17 1010.2 - 1.4 - - - - - - -
22/07:00am 28.5 NW 13 16 1009.8 - 1.4 - - - - - - -
22/06:30am 28.5 NW 13 15 1009.5 - 1.4 - - - - - - -
22/06:00am 28.5 NW 13 15 1009.2 - 1.4 - - - - - - -
22/05:30am 28.4 NW 14 16 1009.0 - 1.4 - - - - - - -
22/05:00am 28.3 NNW 11 15 1008.9 - 1.4 - - - - - - -
22/04:30am 26.5 SW 5 13 1008.8 - 1.4 - - - - - - -
22/04:00am 26.9 NE 5 9 1008.6 - 0.8 - - - - - - -
22/03:30am 28.9 NNW 11 13 1008.4 - 0.0 - - - - - - -
22/03:00am 28.7 NW 11 13 1008.6 - 0.0 - - - - - - -
22/02:30am 28.9 NW 11 13 1008.8 - 0.0 - - - - - - -
22/02:00am 28.8 NW 11 12 1008.9 - 0.0 - - - - - - -
22/01:30am 28.7 NW 11 13 1009.1 - 0.0 - - - - - - -
22/01:00am 28.6 NW 10 12 1009.3 - 0.0 - - - - - - -
22/12:30am 28.7 NW 9 11 1009.4 - 0.0 - - - - - - -
22/12:00am 28.8 WNW 9 11 1009.3 - 0.0 - - - - - - -
 
Date/Time
CST
Temp
°C
Wind Pressure Rain since
9am
mm
Weather Cloud Vis
km
Sea
Height
m
Swell
Dir  Spd
kts
Gust
kts
hPa Trend Height
m
Period
s
Dir
21/11:30pm 28.7 WNW 9 11 1009.6 - 0.0 - - - - - - -
21/11:00pm 28.7 NW 9 11 1009.6 - 0.0 - - - - - - -
21/10:30pm 28.8 NW 10 11 1009.6 - 0.0 - - - - - - -
21/10:00pm 28.8 NW 11 13 1009.3 - 0.0 - - - - - - -
21/09:30pm 28.8 NW 12 13 1009.2 - 0.0 - - - - - - -
21/09:00pm 28.7 NW 10 13 1008.8 - 0.0 - - - - - - -
21/08:30pm 28.8 NW 11 12 1008.7 - 0.0 - - - - - - -
21/08:00pm 29.0 WNW 10 13 1008.5 - 0.0 - - - - - - -
21/07:30pm 28.9 WNW 10 12 1008.3 - 0.0 - - - - - - -
21/07:00pm 29.1 WNW 11 13 1008.1 - 0.0 - - - - - - -
21/06:30pm 29.7 WNW 11 13 1007.8 - 0.0 - - - - - - -
21/06:00pm 30.1 WNW 13 15 1007.4 - 0.0 - - - - - - -
21/05:30pm 30.1 NW 12 15 1007.1 - 0.0 - - - - - - -
21/05:00pm 30.4 NW 13 15 1006.9 - 0.0 - - - - - - -
21/04:30pm 30.6 NW 13 15 1007.1 - 0.0 - - - - - - -
21/04:00pm 30.7 NW 13 15 1007.2 - 0.0 - - - - - - -
21/03:30pm 30.7 NW 13 15 1007.4 - 0.0 - - - - - - -
21/03:00pm 30.7 NW 13 15 1007.7 - 0.0 - - - - - - -
21/02:30pm 30.6 NW 14 16 1008.1 - 0.0 - - - - - - -
21/02:00pm 30.8 NW 14 16 1008.5 - 0.0 - - - - - - -
21/01:30pm 32.2 WNW 12 14 1009.0 - 0.0 - - - - - - -
21/01:00pm 31.4 WNW 11 13 1009.5 - 0.0 - - - - - - -
21/12:30pm 31.4 WNW 10 13 1010.1 - 0.0 - - - - - - -
21/12:00pm 31.0 WNW 9 11 1010.6 - 0.0 - - - - - - -
21/11:30am 31.0 W 8 11 1010.7 - 0.0 - - - - - - -
21/11:00am 30.3 W 9 12 1010.8 - 0.0 - - - - - - -
21/10:30am 30.1 W 8 10 1011.0 - 0.0 - - - - - - -
21/10:00am 29.7 W 8 10 1011.1 - 0.0 - - - - - - -
21/09:30am 29.7 W 9 11 1011.0 - 0.0 - - - - - - -
21/09:00am 29.2 W 8 11 1010.7 - 0.8 - - - - - - -
21/08:30am 28.7 W 10 12 1010.4 - 0.8 - - - - - - -
21/08:00am 28.2 WSW 10 12 1009.8 - 0.8 - - - - - - -
21/07:30am 27.5 WSW 8 10 1009.3 - 0.8 - - - - - - -
21/07:00am 26.8 WSW 7 9 1009.1 - 0.8 - - - - - - -
21/06:30am 26.4 WSW 7 10 1008.6 - 0.8 - - - - - - -
21/06:00am 26.1 SW 7 9 1008.6 - 0.8 - - - - - - -
21/05:30am 25.3 SSW 5 8 1008.4 - 0.8 - - - - - - -
21/05:00am 24.9 SSW 4 6 1008.0 - 0.8 - - - - - - -
21/04:30am 25.0 S 4 5 1007.6 - 0.8 - - - - - - -
21/04:00am 24.8 S 4 6 1007.4 - 0.8 - - - - - - -
21/03:30am 24.8 S 5 5 1007.1 - 0.8 - - - - - - -
21/03:00am 25.2 SSW 4 8 1007.4 - 0.8 - - - - - - -
21/02:30am 25.0 SSW 6 7 1007.6 - 0.8 - - - - - - -
21/02:00am 24.8 S 5 5 1007.7 - 0.8 - - - - - - -
21/01:30am 25.5 SSW 7 9 1008.1 - 0.8 - - - - - - -
21/01:00am 25.1 S 3 4 1008.3 - 0.8 - - - - - - -
21/12:30am 25.0 S 4 5 1008.6 - 0.8 - - - - - - -
21/12:00am 25.1 CALM 0 0 1008.5 - 0.8 - - - - - - -
 
Date/Time
CST
Temp
°C
Wind Pressure Rain since
9am
mm
Weather Cloud Vis
km
Sea
Height
m
Swell
Dir  Spd
kts
Gust
kts
hPa Trend Height
m
Period
s
Dir
20/11:30pm 25.0 CALM 0 0 1009.1 - 0.8 - - - - - - -
20/11:00pm 25.3 SE 2 4 1009.0 - 0.8 - - - - - - -
20/10:30pm 25.5 CALM 0 0 1008.9 - 0.8 - - - - - - -
20/10:00pm 26.4 WSW 3 6 1008.8 - 0.8 - - - - - - -
20/09:30pm 27.0 W 15 23 1008.6 - 0.0 - - - - - - -
20/09:29pm 27.0 W 15 23 1008.5 - 0.0 - - - - - - -
20/09:00pm 28.8 WNW 11 12 1008.2 - 0.0 - - - - - - -
20/08:30pm 28.7 WNW 11 13 1007.8 - 0.0 - - - - - - -
20/08:00pm 28.7 WNW 11 12 1007.5 - 0.0 - - - - - - -
20/07:30pm 28.7 WNW 12 14 1007.3 - 0.0 - - - - - - -
20/07:00pm 28.8 WNW 12 14 1006.9 - 0.0 - - - - - - -
20/06:30pm 28.7 WNW 13 15 1006.6 - 0.0 - - - - - - -
20/06:00pm 29.0 WNW 13 16 1006.1 - 0.0 - - - - - - -
20/05:30pm 29.4 NW 14 15 1005.8 - 0.0 - - - - - - -
20/05:00pm 29.8 NW 14 16 1005.5 - 0.0 - - - - - - -
20/04:30pm 30.0 NW 15 16 1005.5 - 0.0 - - - - - - -
20/04:00pm 30.0 NW 14 16 1005.4 - 0.0 - - - - - - -
20/03:30pm 29.9 NW 13 15 1005.4 - 0.0 - - - - - - -
20/03:00pm 30.0 WNW 11 13 1005.5 - 0.0 - - - - - - -
20/02:30pm 30.4 W 12 14 1005.6 - 0.0 - - - - - - -
20/02:00pm 29.9 W 14 16 1005.8 - 0.0 - - - - - - -
20/01:30pm 29.9 W 12 15 1006.3 - 0.0 - - - - - - -
20/01:00pm 29.6 W 12 14 1006.6 - 0.0 - - - - - - -
20/12:30pm 29.9 W 11 14 1006.9 - 0.0 - - - - - - -
20/12:00pm 29.1 WSW 15 17 1007.4 - 0.0 - - - - - - -
20/11:30am 29.2 WSW 16 19 1007.7 - 0.0 - - - - - - -
20/11:00am 29.1 WSW 14 18 1007.9 - 0.0 - - - - - - -
20/10:30am 28.3 WSW 15 17 1007.8 - 0.0 - - - - - - -
20/10:00am 28.1 WSW 14 18 1007.9 - 0.0 - - - - - - -
20/09:30am 28.0 WSW 13 15 1008.0 - 0.0 - - - - - - -
20/09:00am 27.1 SW 13 16 1007.8 - 15.6 - - - - - - -
20/08:30am 27.2 SW 12 16 1007.9 - 15.6 - - - - - - -
20/08:00am 26.5 SW 13 16 1007.7 - 15.6 - - - - - - -
20/07:30am 26.2 WSW 13 15 1007.4 - 15.6 - - - - - - -
20/07:00am 26.4 SW 13 16 1006.6 - 15.6 - - - - - - -
20/06:30am 26.4 WSW 12 14 1005.8 - 15.6 - - - - - - -
20/06:00am 26.4 WSW 15 17 1005.3 - 15.6 - - - - - - -
20/05:30am 26.3 WSW 16 19 1005.2 - 15.6 - - - - - - -
20/05:00am 26.2 WSW 18 22 1005.3 - 15.6 - - - - - - -
20/04:30am 26.2 WSW 17 20 1004.8 - 15.6 - - - - - - -
20/04:00am 26.0 WSW 14 17 1005.1 - 15.6 - - - - - - -
20/03:30am 25.7 WSW 14 18 1005.5 - 15.6 - - - - - - -
20/03:00am 25.7 WSW 13 15 1005.8 - 15.6 - - - - - - -
20/02:30am 25.6 SW 11 15 1005.4 - 15.6 - - - - - - -
20/02:00am 25.9 WSW 13 15 1006.1 - 15.6 - - - - - - -
20/01:30am 25.9 WSW 13 16 1006.2 - 15.6 - - - - - - -
20/01:00am 25.8 WSW 11 14 1006.2 - 15.6 - - - - - - -
20/12:30am 25.9 W 13 16 1006.6 - 15.6 - - - - - - -
20/12:00am 25.9 WSW 12 15 1006.8 - 15.4 Rain - - - - - -
 
Date/Time
CST
Temp
°C
Wind Pressure Rain since
9am
mm
Weather Cloud Vis
km
Sea
Height
m
Swell
Dir  Spd
kts
Gust
kts
hPa Trend Height
m
Period
s
Dir
19/11:30pm 25.6 WSW 14 17 1006.7 - 14.8 - - - - - - -
19/11:00pm 25.7 SW 14 17 1006.4 - 13.6 - - - - - - -
19/10:30pm 25.7 WSW 15 18 1006.7 - 12.0 - - - - - - -
19/10:00pm 26.1 WSW 14 16 1006.6 - 10.8 - - - - - - -
19/09:30pm 26.1 WSW 13 15 1006.4 - 9.6 - - - - - - -
19/09:00pm 25.6 SW 11 14 1006.3 - 9.4 Recent precip. - - - - - -
19/08:30pm 25.3 SW 11 15 1006.0 - 9.4 - - - - - - -
19/08:00pm 25.2 SW 13 18 1005.6 - 8.8 - - - - - - -
19/07:30pm 25.2 SW 15 19 1005.5 - 8.0 - - - - - - -
19/07:00pm 25.3 SW 19 27 1004.9 - 6.8 - - - - - - -
19/06:47pm 26.9 W 24 33 1004.4 - 5.2 - - - - - - -
19/06:30pm 28.6 WNW 22 26 1004.1 - 5.2 - - - - - - -
19/06:00pm 28.6 WNW 22 27 1003.8 - 5.2 - - - - - - -
19/05:30pm 28.6 WNW 22 27 1003.6 - 5.2 - - - - - - -
19/05:00pm 28.7 WNW 23 28 1003.7 - 5.2 - - - - - - -
19/04:30pm 28.7 WNW 24 29 1003.5 - 5.2 - - - - - - -
19/04:00pm 28.7 WNW 26 31 1003.2 - 5.2 - - - - - - -
19/03:30pm 28.4 WNW 25 30 1003.5 - 5.2 - - - - - - -
19/03:00pm 28.2 WNW 24 29 1003.6 - 5.2 - - - - - - -
19/02:30pm 28.1 WNW 22 26 1004.3 - 5.2 - - - - - - -
19/02:00pm 28.1 WNW 23 27 1004.7 - 5.2 - - - - - - -
19/01:30pm 27.8 WNW 19 23 1005.0 - 5.2 - - - - - - -
19/01:00pm 27.6 W 24 30 1005.3 - 5.2 - - - - - - -
19/12:30pm 27.6 WNW 23 30 1005.4 - 1.8 - - - - - - -
19/12:00pm 27.9 WNW 25 31 1006.1 - 1.8 - - - - - - -
19/11:30am 28.0 WNW 25 31 1006.5 - 1.8 - - - - - - -

Other Formats:

Comma delimited format used in spreadsheet applications
http://www.bom.gov.au/fwo/IDD60701/IDD60701.95146.axf

JavaScript Object Notation format (JSON) in row-major order
http://www.bom.gov.au/fwo/IDD60701/IDD60701.95146.json